sensor_id;sensor_type;location;lat;lon;timestamp;pressure;altitude;pressure_sealevel;temperature;humidity
80726;BME280;70113;59.928;10.878;2023-09-18T00:02:25;99625.28;;;9.04;88.13
80726;BME280;70113;59.928;10.878;2023-09-18T00:04:52;99626.44;;;8.89;89.12
80726;BME280;70113;59.928;10.878;2023-09-18T00:07:17;99615.09;;;8.85;89.29
80726;BME280;70113;59.928;10.878;2023-09-18T00:09:43;99615.84;;;8.92;88.98
80726;BME280;70113;59.928;10.878;2023-09-18T00:12:08;99612.22;;;8.99;88.79
80726;BME280;70113;59.928;10.878;2023-09-18T00:14:38;99623.75;;;8.92;89.35
80726;BME280;70113;59.928;10.878;2023-09-18T00:17:03;99621.09;;;8.92;89.25
80726;BME280;70113;59.928;10.878;2023-09-18T00:19:29;99594.00;;;8.85;89.30
80726;BME280;70113;59.928;10.878;2023-09-18T00:21:56;99607.81;;;8.98;89.16
80726;BME280;70113;59.928;10.878;2023-09-18T00:24:27;99606.19;;;8.91;88.87
80726;BME280;70113;59.928;10.878;2023-09-18T00:26:53;99594.69;;;8.97;88.78
80726;BME280;70113;59.928;10.878;2023-09-18T00:29:20;99590.50;;;8.86;89.15
80726;BME280;70113;59.928;10.878;2023-09-18T00:31:45;99595.78;;;8.85;89.25
80726;BME280;70113;59.928;10.878;2023-09-18T00:34:11;99598.34;;;8.89;89.58
80726;BME280;70113;59.928;10.878;2023-09-18T00:36:37;99583.94;;;9.06;88.11
80726;BME280;70113;59.928;10.878;2023-09-18T00:39:02;99582.41;;;8.94;89.04
80726;BME280;70113;59.928;10.878;2023-09-18T00:41:29;99579.28;;;8.74;89.91
80726;BME280;70113;59.928;10.878;2023-09-18T00:43:54;99583.81;;;8.67;90.41
80726;BME280;70113;59.928;10.878;2023-09-18T00:46:21;99575.88;;;8.69;90.71
80726;BME280;70113;59.928;10.878;2023-09-18T00:48:47;99569.09;;;8.55;91.21
80726;BME280;70113;59.928;10.878;2023-09-18T00:51:14;99554.94;;;8.59;91.41
80726;BME280;70113;59.928;10.878;2023-09-18T00:53:44;99554.00;;;8.63;91.22
80726;BME280;70113;59.928;10.878;2023-09-18T00:56:10;99525.50;;;8.39;91.45
80726;BME280;70113;59.928;10.878;2023-09-18T00:58:37;99543.53;;;8.60;91.38
80726;BME280;70113;59.928;10.878;2023-09-18T01:01:03;99524.72;;;8.31;92.15
80726;BME280;70113;59.928;10.878;2023-09-18T01:03:30;99534.28;;;8.36;92.24
80726;BME280;70113;59.928;10.878;2023-09-18T01:05:55;99515.91;;;8.32;92.64
80726;BME280;70113;59.928;10.878;2023-09-18T01:08:21;99506.22;;;8.34;92.70
80726;BME280;70113;59.928;10.878;2023-09-18T01:13:41;99514.59;;;8.57;91.42
80726;BME280;70113;59.928;10.878;2023-09-18T01:16:15;99511.31;;;8.46;92.05
80726;BME280;70113;59.928;10.878;2023-09-18T01:18:49;99508.66;;;8.46;91.94
80726;BME280;70113;59.928;10.878;2023-09-18T01:21:16;99489.47;;;8.38;92.36
80726;BME280;70113;59.928;10.878;2023-09-18T01:23:42;99485.22;;;8.31;92.95
80726;BME280;70113;59.928;10.878;2023-09-18T01:26:07;99468.84;;;8.13;93.03
80726;BME280;70113;59.928;10.878;2023-09-18T01:28:33;99485.75;;;8.51;92.46
80726;BME280;70113;59.928;10.878;2023-09-18T01:30:59;99479.81;;;8.40;92.47
80726;BME280;70113;59.928;10.878;2023-09-18T01:33:26;99448.63;;;8.15;92.74
80726;BME280;70113;59.928;10.878;2023-09-18T01:35:53;99459.69;;;8.33;92.34
80726;BME280;70113;59.928;10.878;2023-09-18T01:38:22;99479.84;;;8.37;92.25
80726;BME280;70113;59.928;10.878;2023-09-18T01:40:48;99451.97;;;8.23;93.18
80726;BME280;70113;59.928;10.878;2023-09-18T01:43:14;99462.38;;;8.30;92.92
80726;BME280;70113;59.928;10.878;2023-09-18T01:45:39;99465.06;;;8.28;93.51
80726;BME280;70113;59.928;10.878;2023-09-18T01:48:06;99461.75;;;8.18;94.52
80726;BME280;70113;59.928;10.878;2023-09-18T01:50:31;99465.13;;;8.23;94.03
80726;BME280;70113;59.928;10.878;2023-09-18T01:52:58;99462.59;;;8.19;94.41
80726;BME280;70113;59.928;10.878;2023-09-18T01:55:24;99454.53;;;8.27;94.11
80726;BME280;70113;59.928;10.878;2023-09-18T01:57:50;99447.72;;;8.18;94.94
80726;BME280;70113;59.928;10.878;2023-09-18T02:00:15;99434.78;;;8.04;95.59
80726;BME280;70113;59.928;10.878;2023-09-18T02:02:41;99459.94;;;8.20;95.12
80726;BME280;70113;59.928;10.878;2023-09-18T02:05:07;99451.84;;;8.30;94.28
80726;BME280;70113;59.928;10.878;2023-09-18T02:07:33;99435.97;;;8.36;93.95
80726;BME280;70113;59.928;10.878;2023-09-18T02:09:59;99441.56;;;8.17;94.97
80726;BME280;70113;59.928;10.878;2023-09-18T02:12:24;99446.59;;;8.30;94.72
80726;BME280;70113;59.928;10.878;2023-09-18T02:14:50;99440.28;;;8.40;93.49
80726;BME280;70113;59.928;10.878;2023-09-18T02:17:16;99450.97;;;8.31;94.55
80726;BME280;70113;59.928;10.878;2023-09-18T02:19:41;99448.88;;;8.51;93.11
80726;BME280;70113;59.928;10.878;2023-09-18T02:22:08;99451.75;;;8.39;93.90
80726;BME280;70113;59.928;10.878;2023-09-18T02:24:34;99449.94;;;8.41;93.91
80726;BME280;70113;59.928;10.878;2023-09-18T02:27:00;99404.63;;;8.22;93.55
80726;BME280;70113;59.928;10.878;2023-09-18T02:29:25;99436.22;;;8.20;94.86
80726;BME280;70113;59.928;10.878;2023-09-18T02:31:51;99428.94;;;8.35;94.47
80726;BME280;70113;59.928;10.878;2023-09-18T02:34:17;99432.63;;;8.26;94.72
80726;BME280;70113;59.928;10.878;2023-09-18T02:36:44;99402.91;;;8.21;94.86
80726;BME280;70113;59.928;10.878;2023-09-18T02:39:10;99404.69;;;8.17;95.45
80726;BME280;70113;59.928;10.878;2023-09-18T02:41:36;99398.25;;;8.34;94.55
80726;BME280;70113;59.928;10.878;2023-09-18T02:44:01;99422.81;;;8.36;94.92
80726;BME280;70113;59.928;10.878;2023-09-18T02:46:27;99409.66;;;8.33;94.84
80726;BME280;70113;59.928;10.878;2023-09-18T02:48:52;99404.63;;;8.22;95.98
80726;BME280;70113;59.928;10.878;2023-09-18T02:51:18;99397.75;;;8.13;96.65
80726;BME280;70113;59.928;10.878;2023-09-18T02:53:43;99395.13;;;8.13;97.06
80726;BME280;70113;59.928;10.878;2023-09-18T02:56:09;99394.88;;;8.26;95.88
80726;BME280;70113;59.928;10.878;2023-09-18T02:58:35;99384.41;;;8.24;95.70
80726;BME280;70113;59.928;10.878;2023-09-18T03:01:00;99377.94;;;8.42;94.56
80726;BME280;70113;59.928;10.878;2023-09-18T03:03:28;99376.25;;;8.36;94.84
80726;BME280;70113;59.928;10.878;2023-09-18T03:06:00;99378.78;;;8.42;94.90
80726;BME280;70113;59.928;10.878;2023-09-18T03:08:26;99366.28;;;8.54;94.54
80726;BME280;70113;59.928;10.878;2023-09-18T03:10:51;99364.31;;;8.62;93.89
80726;BME280;70113;59.928;10.878;2023-09-18T03:13:17;99339.09;;;8.52;93.60
80726;BME280;70113;59.928;10.878;2023-09-18T03:15:46;99338.59;;;8.75;93.13
80726;BME280;70113;59.928;10.878;2023-09-18T03:18:15;99341.81;;;8.47;94.45
80726;BME280;70113;59.928;10.878;2023-09-18T03:48:18;99309.56;;;8.36;96.32
80726;BME280;70113;59.928;10.878;2023-09-18T03:50:47;99297.03;;;8.47;96.14
80726;BME280;70113;59.928;10.878;2023-09-18T03:53:13;99274.41;;;8.37;96.28
80726;BME280;70113;59.928;10.878;2023-09-18T03:55:38;99277.41;;;8.60;94.98
80726;BME280;70113;59.928;10.878;2023-09-18T03:58:04;99290.38;;;8.70;94.88
80726;BME280;70113;59.928;10.878;2023-09-18T04:00:30;99268.81;;;8.52;95.72
80726;BME280;70113;59.928;10.878;2023-09-18T04:02:56;99273.09;;;8.56;96.13
80726;BME280;70113;59.928;10.878;2023-09-18T04:05:22;99269.59;;;8.57;95.36
80726;BME280;70113;59.928;10.878;2023-09-18T04:07:47;99287.69;;;8.73;94.93
80726;BME280;70113;59.928;10.878;2023-09-18T04:10:16;99278.63;;;8.83;94.28
80726;BME280;70113;59.928;10.878;2023-09-18T04:12:49;99278.00;;;8.73;94.95
80726;BME280;70113;59.928;10.878;2023-09-18T04:15:16;99263.03;;;8.75;94.60
80726;BME280;70113;59.928;10.878;2023-09-18T04:17:43;99265.03;;;8.64;96.23
80726;BME280;70113;59.928;10.878;2023-09-18T04:20:10;99267.84;;;8.94;95.25
80726;BME280;70113;59.928;10.878;2023-09-18T04:22:36;99279.16;;;8.99;94.75
80726;BME280;70113;59.928;10.878;2023-09-18T04:25:02;99279.06;;;9.02;94.28
80726;BME280;70113;59.928;10.878;2023-09-18T04:27:30;99274.75;;;8.98;94.95
80726;BME280;70113;59.928;10.878;2023-09-18T04:29:56;99263.50;;;8.91;96.45
80726;BME280;70113;59.928;10.878;2023-09-18T04:32:23;99260.03;;;8.89;98.15
80726;BME280;70113;59.928;10.878;2023-09-18T04:34:49;99230.31;;;8.84;98.15
80726;BME280;70113;59.928;10.878;2023-09-18T04:37:14;99238.13;;;8.87;99.29
80726;BME280;70113;59.928;10.878;2023-09-18T04:39:40;99241.81;;;8.80;100.00
80726;BME280;70113;59.928;10.878;2023-09-18T04:42:05;99218.47;;;8.64;100.00
80726;BME280;70113;59.928;10.878;2023-09-18T04:44:31;99230.47;;;8.78;100.00
80726;BME280;70113;59.928;10.878;2023-09-18T04:46:56;99229.50;;;8.80;100.00
80726;BME280;70113;59.928;10.878;2023-09-18T04:49:23;99237.56;;;8.74;100.00
80726;BME280;70113;59.928;10.878;2023-09-18T04:51:49;99231.41;;;8.74;100.00
80726;BME280;70113;59.928;10.878;2023-09-18T04:54:15;99224.22;;;8.80;100.00
80726;BME280;70113;59.928;10.878;2023-09-18T04:56:41;99215.38;;;8.83;100.00
80726;BME280;70113;59.928;10.878;2023-09-18T04:59:06;99224.28;;;8.41;100.00
80726;BME280;70113;59.928;10.878;2023-09-18T05:01:32;99223.97;;;8.55;100.00
80726;BME280;70113;59.928;10.878;2023-09-18T05:03:58;99227.13;;;8.70;100.00
80726;BME280;70113;59.928;10.878;2023-09-18T05:06:23;99215.69;;;8.71;100.00
80726;BME280;70113;59.928;10.878;2023-09-18T05:08:49;99221.97;;;8.65;100.00
80726;BME280;70113;59.928;10.878;2023-09-18T05:11:15;99207.78;;;8.71;100.00
80726;BME280;70113;59.928;10.878;2023-09-18T05:13:42;99185.94;;;8.65;100.00
80726;BME280;70113;59.928;10.878;2023-09-18T05:16:07;99200.81;;;8.68;100.00
80726;BME280;70113;59.928;10.878;2023-09-18T05:18:33;99213.75;;;8.77;100.00
80726;BME280;70113;59.928;10.878;2023-09-18T05:20:58;99202.66;;;8.64;100.00
80726;BME280;70113;59.928;10.878;2023-09-18T05:23:24;99204.97;;;8.78;100.00
80726;BME280;70113;59.928;10.878;2023-09-18T05:25:50;99199.19;;;8.62;100.00
80726;BME280;70113;59.928;10.878;2023-09-18T05:28:15;99204.34;;;8.69;100.00
80726;BME280;70113;59.928;10.878;2023-09-18T05:30:41;99199.19;;;8.62;100.00
80726;BME280;70113;59.928;10.878;2023-09-18T05:33:07;99201.66;;;8.70;100.00
80726;BME280;70113;59.928;10.878;2023-09-18T05:35:42;99201.47;;;8.78;100.00
80726;BME280;70113;59.928;10.878;2023-09-18T05:38:09;99199.69;;;8.78;100.00
80726;BME280;70113;59.928;10.878;2023-09-18T05:40:36;99184.75;;;8.79;100.00
80726;BME280;70113;59.928;10.878;2023-09-18T05:43:02;99194.59;;;8.71;100.00
80726;BME280;70113;59.928;10.878;2023-09-18T05:45:28;99196.28;;;8.75;100.00
80726;BME280;70113;59.928;10.878;2023-09-18T05:47:54;99190.72;;;8.85;100.00
80726;BME280;70113;59.928;10.878;2023-09-18T05:50:27;99193.50;;;8.79;100.00
80726;BME280;70113;59.928;10.878;2023-09-18T05:52:55;99194.38;;;8.80;100.00
80726;BME280;70113;59.928;10.878;2023-09-18T05:55:25;99187.06;;;8.91;100.00
80726;BME280;70113;59.928;10.878;2023-09-18T05:57:51;99177.63;;;8.82;100.00
80726;BME280;70113;59.928;10.878;2023-09-18T06:00:16;99173.69;;;8.64;100.00
80726;BME280;70113;59.928;10.878;2023-09-18T06:02:43;99180.19;;;8.85;100.00
80726;BME280;70113;59.928;10.878;2023-09-18T06:05:11;99173.34;;;8.78;100.00
80726;BME280;70113;59.928;10.878;2023-09-18T06:07:37;99164.66;;;8.75;100.00
80726;BME280;70113;59.928;10.878;2023-09-18T06:10:03;99175.19;;;8.75;100.00
80726;BME280;70113;59.928;10.878;2023-09-18T06:12:29;99170.72;;;8.78;100.00
80726;BME280;70113;59.928;10.878;2023-09-18T06:14:55;99159.22;;;8.81;100.00
80726;BME280;70113;59.928;10.878;2023-09-18T06:17:21;99160.00;;;8.84;100.00
80726;BME280;70113;59.928;10.878;2023-09-18T06:19:46;99148.59;;;8.84;100.00
80726;BME280;70113;59.928;10.878;2023-09-18T06:22:13;99147.44;;;8.96;100.00
80726;BME280;70113;59.928;10.878;2023-09-18T06:24:38;99142.59;;;9.11;100.00
80726;BME280;70113;59.928;10.878;2023-09-18T06:27:05;99120.31;;;8.90;100.00
80726;BME280;70113;59.928;10.878;2023-09-18T06:29:31;99129.31;;;8.83;100.00
80726;BME280;70113;59.928;10.878;2023-09-18T06:31:57;99131.59;;;8.96;100.00
80726;BME280;70113;59.928;10.878;2023-09-18T06:34:23;99113.97;;;8.98;100.00
80726;BME280;70113;59.928;10.878;2023-09-18T06:36:49;99112.56;;;8.84;100.00
80726;BME280;70113;59.928;10.878;2023-09-18T06:39:14;99117.63;;;8.92;100.00
80726;BME280;70113;59.928;10.878;2023-09-18T06:41:40;99106.09;;;8.96;100.00
80726;BME280;70113;59.928;10.878;2023-09-18T06:44:06;99093.69;;;9.00;100.00
80726;BME280;70113;59.928;10.878;2023-09-18T06:46:32;99097.94;;;9.05;100.00
80726;BME280;70113;59.928;10.878;2023-09-18T06:48:57;99102.28;;;9.08;100.00
80726;BME280;70113;59.928;10.878;2023-09-18T06:51:26;99102.13;;;9.12;100.00
80726;BME280;70113;59.928;10.878;2023-09-18T06:53:53;99100.31;;;9.15;100.00
80726;BME280;70113;59.928;10.878;2023-09-18T06:56:19;99088.25;;;9.06;100.00
80726;BME280;70113;59.928;10.878;2023-09-18T06:58:45;99063.53;;;9.10;100.00
80726;BME280;70113;59.928;10.878;2023-09-18T07:01:13;99073.03;;;9.16;100.00
80726;BME280;70113;59.928;10.878;2023-09-18T07:03:40;99044.28;;;9.06;100.00
80726;BME280;70113;59.928;10.878;2023-09-18T07:06:06;99057.94;;;9.21;100.00
80726;BME280;70113;59.928;10.878;2023-09-18T07:51:31;99000.69;;;9.54;100.00
80726;BME280;70113;59.928;10.878;2023-09-18T07:53:58;98990.78;;;9.61;100.00
80726;BME280;70113;59.928;10.878;2023-09-18T07:56:23;98992.28;;;9.69;100.00
80726;BME280;70113;59.928;10.878;2023-09-18T07:58:49;98991.31;;;9.72;100.00
80726;BME280;70113;59.928;10.878;2023-09-18T08:01:14;98981.69;;;9.71;100.00
80726;BME280;70113;59.928;10.878;2023-09-18T08:03:42;98983.16;;;9.79;100.00
80726;BME280;70113;59.928;10.878;2023-09-18T08:06:07;98976.41;;;9.71;100.00
80726;BME280;70113;59.928;10.878;2023-09-18T08:08:33;98999.09;;;9.76;100.00
80726;BME280;70113;59.928;10.878;2023-09-18T08:11:06;99002.53;;;9.78;100.00
80726;BME280;70113;59.928;10.878;2023-09-18T08:13:34;99003.97;;;9.89;100.00
80726;BME280;70113;59.928;10.878;2023-09-18T08:15:59;98994.28;;;9.89;100.00
80726;BME280;70113;59.928;10.878;2023-09-18T08:18:25;98992.75;;;9.82;100.00
80726;BME280;70113;59.928;10.878;2023-09-18T08:20:52;98992.97;;;9.76;100.00
80726;BME280;70113;59.928;10.878;2023-09-18T08:23:19;98999.53;;;9.91;100.00
80726;BME280;70113;59.928;10.878;2023-09-18T08:25:44;98986.25;;;9.92;100.00
80726;BME280;70113;59.928;10.878;2023-09-18T08:28:10;98988.56;;;10.03;100.00
80726;BME280;70113;59.928;10.878;2023-09-18T08:30:36;98984.75;;;10.12;100.00
80726;BME280;70113;59.928;10.878;2023-09-18T08:33:03;98970.22;;;9.98;100.00
80726;BME280;70113;59.928;10.878;2023-09-18T08:35:29;98972.66;;;10.04;100.00
80726;BME280;70113;59.928;10.878;2023-09-18T08:37:55;98962.66;;;10.14;100.00
80726;BME280;70113;59.928;10.878;2023-09-18T08:40:22;98929.22;;;9.88;100.00
80726;BME280;70113;59.928;10.878;2023-09-18T08:42:51;98945.34;;;10.06;100.00
80726;BME280;70113;59.928;10.878;2023-09-18T08:45:46;98950.34;;;10.13;100.00
80726;BME280;70113;59.928;10.878;2023-09-18T08:48:13;98967.00;;;10.15;100.00
80726;BME280;70113;59.928;10.878;2023-09-18T08:50:40;98947.44;;;10.21;100.00
80726;BME280;70113;59.928;10.878;2023-09-18T08:53:06;98958.81;;;10.23;100.00
80726;BME280;70113;59.928;10.878;2023-09-18T08:55:33;98955.31;;;10.22;100.00
80726;BME280;70113;59.928;10.878;2023-09-18T08:57:59;98942.09;;;10.22;100.00
80726;BME280;70113;59.928;10.878;2023-09-18T09:00:26;98949.16;;;10.22;100.00
80726;BME280;70113;59.928;10.878;2023-09-18T09:02:52;98956.47;;;10.14;100.00
80726;BME280;70113;59.928;10.878;2023-09-18T09:05:21;98924.16;;;10.07;100.00
80726;BME280;70113;59.928;10.878;2023-09-18T09:07:46;98937.78;;;10.20;100.00
80726;BME280;70113;59.928;10.878;2023-09-18T09:10:12;98928.97;;;10.21;100.00
80726;BME280;70113;59.928;10.878;2023-09-18T09:15:14;98920.75;;;10.30;100.00
80726;BME280;70113;59.928;10.878;2023-09-18T09:17:41;98917.19;;;10.31;100.00
80726;BME280;70113;59.928;10.878;2023-09-18T09:20:11;98903.75;;;10.37;100.00
80726;BME280;70113;59.928;10.878;2023-09-18T09:22:38;98896.28;;;10.48;100.00
80726;BME280;70113;59.928;10.878;2023-09-18T09:27:47;98893.78;;;10.45;100.00
80726;BME280;70113;59.928;10.878;2023-09-18T09:30:19;98892.41;;;10.35;100.00
80726;BME280;70113;59.928;10.878;2023-09-18T09:32:48;98896.69;;;10.38;100.00
80726;BME280;70113;59.928;10.878;2023-09-18T09:35:34;98900.66;;;10.49;100.00
80726;BME280;70113;59.928;10.878;2023-09-18T09:40:29;98873.88;;;10.59;100.00
80726;BME280;70113;59.928;10.878;2023-09-18T09:42:57;98858.38;;;10.49;100.00
80726;BME280;70113;59.928;10.878;2023-09-18T09:45:30;98859.66;;;10.63;100.00
80726;BME280;70113;59.928;10.878;2023-09-18T09:47:57;98825.56;;;10.55;100.00
80726;BME280;70113;59.928;10.878;2023-09-18T09:50:23;98839.47;;;10.60;100.00
80726;BME280;70113;59.928;10.878;2023-09-18T10:54:28;98749.25;;;10.69;100.00
80726;BME280;70113;59.928;10.878;2023-09-18T10:56:56;98736.56;;;10.56;100.00
80726;BME280;70113;59.928;10.878;2023-09-18T10:59:22;98735.44;;;10.63;100.00
80726;BME280;70113;59.928;10.878;2023-09-18T11:01:48;98718.53;;;10.45;100.00
80726;BME280;70113;59.928;10.878;2023-09-18T11:04:18;98725.53;;;10.68;100.00
80726;BME280;70113;59.928;10.878;2023-09-18T11:09:41;98717.41;;;10.72;100.00
80726;BME280;70113;59.928;10.878;2023-09-18T11:12:12;98697.44;;;10.65;100.00
80726;BME280;70113;59.928;10.878;2023-09-18T11:17:42;98699.59;;;10.56;100.00
80726;BME280;70113;59.928;10.878;2023-09-18T11:20:17;98690.28;;;10.47;100.00
80726;BME280;70113;59.928;10.878;2023-09-18T11:22:49;98680.56;;;10.47;100.00
80726;BME280;70113;59.928;10.878;2023-09-18T11:28:14;98677.22;;;10.64;100.00
80726;BME280;70113;59.928;10.878;2023-09-18T11:30:50;98681.72;;;10.62;100.00
80726;BME280;70113;59.928;10.878;2023-09-18T11:33:29;98626.81;;;10.25;100.00
80726;BME280;70113;59.928;10.878;2023-09-18T11:35:55;98652.00;;;10.35;100.00
80726;BME280;70113;59.928;10.878;2023-09-18T11:38:21;98674.53;;;10.66;100.00
80726;BME280;70113;59.928;10.878;2023-09-18T11:40:48;98660.28;;;10.48;100.00
80726;BME280;70113;59.928;10.878;2023-09-18T11:43:25;98667.13;;;10.52;100.00
80726;BME280;70113;59.928;10.878;2023-09-18T11:45:58;98656.09;;;10.42;100.00
80726;BME280;70113;59.928;10.878;2023-09-18T11:48:26;98666.38;;;10.50;100.00
80726;BME280;70113;59.928;10.878;2023-09-18T11:50:57;98661.63;;;10.36;100.00
80726;BME280;70113;59.928;10.878;2023-09-18T11:53:24;98653.09;;;10.30;100.00
80726;BME280;70113;59.928;10.878;2023-09-18T11:55:51;98635.13;;;10.38;100.00
80726;BME280;70113;59.928;10.878;2023-09-18T11:58:17;98653.81;;;10.55;100.00
80726;BME280;70113;59.928;10.878;2023-09-18T12:00:45;98652.16;;;10.53;100.00
80726;BME280;70113;59.928;10.878;2023-09-18T12:03:18;98606.16;;;10.36;100.00
80726;BME280;70113;59.928;10.878;2023-09-18T12:05:59;98652.16;;;10.53;100.00
80726;BME280;70113;59.928;10.878;2023-09-18T12:08:26;98639.56;;;10.37;100.00
80726;BME280;70113;59.928;10.878;2023-09-18T12:10:55;98645.53;;;10.42;100.00
80726;BME280;70113;59.928;10.878;2023-09-18T12:13:21;98634.03;;;10.43;100.00
80726;BME280;70113;59.928;10.878;2023-09-18T12:15:48;98623.31;;;10.46;100.00
80726;BME280;70113;59.928;10.878;2023-09-18T12:18:15;98632.66;;;10.55;100.00
80726;BME280;70113;59.928;10.878;2023-09-18T12:20:45;98609.34;;;10.44;100.00
80726;BME280;70113;59.928;10.878;2023-09-18T12:23:12;98622.47;;;10.46;100.00
80726;BME280;70113;59.928;10.878;2023-09-18T12:25:38;98597.88;;;10.44;100.00
80726;BME280;70113;59.928;10.878;2023-09-18T12:28:06;98590.47;;;10.54;100.00
80726;BME280;70113;59.928;10.878;2023-09-18T12:30:33;98598.38;;;10.54;100.00
80726;BME280;70113;59.928;10.878;2023-09-18T12:32:59;98584.97;;;10.58;100.00
80726;BME280;70113;59.928;10.878;2023-09-18T12:35:29;98582.78;;;10.47;100.00
80726;BME280;70113;59.928;10.878;2023-09-18T12:37:57;98575.38;;;10.56;100.00
80726;BME280;70113;59.928;10.878;2023-09-18T12:40:25;98584.13;;;10.58;100.00
80726;BME280;70113;59.928;10.878;2023-09-18T12:42:53;98572.09;;;10.51;100.00
80726;BME280;70113;59.928;10.878;2023-09-18T12:45:19;98572.88;;;10.53;100.00
80726;BME280;70113;59.928;10.878;2023-09-18T12:47:45;98567.72;;;10.49;100.00
80726;BME280;70113;59.928;10.878;2023-09-18T12:50:14;98537.78;;;10.49;100.00
80726;BME280;70113;59.928;10.878;2023-09-18T12:52:41;98551.28;;;10.63;100.00
80726;BME280;70113;59.928;10.878;2023-09-18T12:57:34;98544.06;;;10.46;100.00
80726;BME280;70113;59.928;10.878;2023-09-18T13:00:08;98539.59;;;10.48;100.00
80726;BME280;70113;59.928;10.878;2023-09-18T13:02:37;98520.03;;;10.32;100.00
80726;BME280;70113;59.928;10.878;2023-09-18T13:05:04;98515.13;;;10.43;100.00
80726;BME280;70113;59.928;10.878;2023-09-18T13:07:29;98500.13;;;10.44;100.00
80726;BME280;70113;59.928;10.878;2023-09-18T13:10:16;98507.69;;;10.53;100.00
80726;BME280;70113;59.928;10.878;2023-09-18T13:12:49;98504.97;;;10.55;100.00
80726;BME280;70113;59.928;10.878;2023-09-18T13:15:26;98484.75;;;10.54;100.00
80726;BME280;70113;59.928;10.878;2023-09-18T13:17:53;98480.59;;;10.48;100.00
80726;BME280;70113;59.928;10.878;2023-09-18T13:20:24;98483.66;;;10.59;100.00
80726;BME280;70113;59.928;10.878;2023-09-18T13:22:53;98474.13;;;10.55;100.00
80726;BME280;70113;59.928;10.878;2023-09-18T13:25:21;98454.09;;;10.49;100.00
80726;BME280;70113;59.928;10.878;2023-09-18T13:27:48;98451.59;;;10.46;100.00
80726;BME280;70113;59.928;10.878;2023-09-18T13:30:14;98444.84;;;10.60;100.00
80726;BME280;70113;59.928;10.878;2023-09-18T13:32:45;98434.00;;;10.66;100.00
80726;BME280;70113;59.928;10.878;2023-09-18T13:35:11;98421.13;;;10.58;100.00
80726;BME280;70113;59.928;10.878;2023-09-18T13:37:39;98412.34;;;10.58;100.00
80726;BME280;70113;59.928;10.878;2023-09-18T13:40:05;98409.19;;;10.49;100.00
80726;BME280;70113;59.928;10.878;2023-09-18T13:42:35;98412.28;;;10.59;100.00
80726;BME280;70113;59.928;10.878;2023-09-18T13:45:01;98402.44;;;10.63;100.00
80726;BME280;70113;59.928;10.878;2023-09-18T13:47:29;98405.75;;;10.68;100.00
80726;BME280;70113;59.928;10.878;2023-09-18T13:49:55;98389.94;;;10.66;100.00
80726;BME280;70113;59.928;10.878;2023-09-18T13:52:28;98396.72;;;10.72;100.00
80726;BME280;70113;59.928;10.878;2023-09-18T13:54:55;98368.09;;;10.63;100.00
80726;BME280;70113;59.928;10.878;2023-09-18T13:57:21;98376.88;;;10.63;100.00
80726;BME280;70113;59.928;10.878;2023-09-18T13:59:48;98364.78;;;10.58;100.00
80726;BME280;70113;59.928;10.878;2023-09-18T14:02:15;98371.91;;;10.56;100.00
80726;BME280;70113;59.928;10.878;2023-09-18T14:04:42;98346.50;;;10.53;100.00
80726;BME280;70113;59.928;10.878;2023-09-18T14:07:08;98328.22;;;10.67;100.00
80726;BME280;70113;59.928;10.878;2023-09-18T14:09:34;98328.72;;;10.76;100.00
80726;BME280;70113;59.928;10.878;2023-09-18T14:12:01;98324.09;;;10.81;100.00
80726;BME280;70113;59.928;10.878;2023-09-18T14:14:26;98271.50;;;10.56;100.00
80726;BME280;70113;59.928;10.878;2023-09-18T14:16:52;98283.38;;;10.66;100.00
80726;BME280;70113;59.928;10.878;2023-09-18T14:19:19;98293.75;;;10.88;100.00
80726;BME280;70113;59.928;10.878;2023-09-18T14:21:45;98272.06;;;10.81;100.00
80726;BME280;70113;59.928;10.878;2023-09-18T14:24:11;98271.00;;;11.03;100.00
80726;BME280;70113;59.928;10.878;2023-09-18T14:26:36;98253.50;;;11.00;100.00
80726;BME280;70113;59.928;10.878;2023-09-18T14:29:10;98256.88;;;11.04;100.00
80726;BME280;70113;59.928;10.878;2023-09-18T14:31:36;98226.75;;;10.89;100.00
80726;BME280;70113;59.928;10.878;2023-09-18T14:34:02;98235.44;;;11.10;100.00
80726;BME280;70113;59.928;10.878;2023-09-18T14:36:29;98218.06;;;11.04;100.00
80726;BME280;70113;59.928;10.878;2023-09-18T14:38:55;98223.75;;;11.14;100.00
80726;BME280;70113;59.928;10.878;2023-09-18T14:41:23;98232.69;;;11.11;100.00
80726;BME280;70113;59.928;10.878;2023-09-18T14:43:50;98233.25;;;11.01;100.00
80726;BME280;70113;59.928;10.878;2023-09-18T14:46:17;98231.44;;;11.01;100.00
80726;BME280;70113;59.928;10.878;2023-09-18T14:48:46;98230.34;;;11.05;100.00
80726;BME280;70113;59.928;10.878;2023-09-18T14:51:11;98222.19;;;11.10;100.00
80726;BME280;70113;59.928;10.878;2023-09-18T14:53:37;98214.41;;;11.07;100.00
80726;BME280;70113;59.928;10.878;2023-09-18T14:56:03;98201.72;;;10.96;100.00
80726;BME280;70113;59.928;10.878;2023-09-18T14:58:30;98214.81;;;11.16;100.00
80726;BME280;70113;59.928;10.878;2023-09-18T15:00:56;98202.53;;;11.15;100.00
80726;BME280;70113;59.928;10.878;2023-09-18T15:03:23;98185.31;;;11.24;100.00
80726;BME280;70113;59.928;10.878;2023-09-18T15:05:52;98163.72;;;11.16;100.00
80726;BME280;70113;59.928;10.878;2023-09-18T15:08:19;98173.03;;;11.23;100.00
80726;BME280;70113;59.928;10.878;2023-09-18T15:11:03;98166.09;;;11.21;100.00
80726;BME280;70113;59.928;10.878;2023-09-18T15:13:30;98152.66;;;11.25;100.00
80726;BME280;70113;59.928;10.878;2023-09-18T15:15:56;98141.38;;;11.22;100.00
80726;BME280;70113;59.928;10.878;2023-09-18T15:18:22;98142.13;;;11.24;100.00
80726;BME280;70113;59.928;10.878;2023-09-18T15:20:48;98131.31;;;11.28;100.00
80726;BME280;70113;59.928;10.878;2023-09-18T15:23:23;98132.53;;;11.38;100.00